Volkhov, Russia
Current Conditions -  °F | °C
As of 1:00 AM on Monday 26 Jan 2015 (Local Time) from ULLI Reporting Station
Moderate Snow Moderate Snow  
Wind Chill: 21°   Ceiling: 800
Heat Index: 27°   Visibility: 0.75mi
Dew Point: 27°   Wind: 4mph
Humidity: 100%   Direction: 250°WSW
Pressure: 30.15"   Gusts: NA
Location:  59.93°N, 32.34°E
Report Text: ULLI 252200Z 25002MPS 1200 R28L/1200U R28R/P2000D SN BKN008OVC017 M03/M03 Q1021 88491034 NOSIG
Loading
Personal Weather Stations






























Interactive Weather Map New forecast layout! Learn more

10-Day Weather Forecast

Advertisements
Track Severe Weather on mobile